<?xml version="1.0" encoding="UTF-8"?>
<gpx version="1.1" creator="Endomondo.com" xsi:schemaLocation="http://www.topografix.com/GPX/1/1 http://www.topografix.com/GPX/1/1/gpx.xsd http://www.garmin.com/xmlschemas/GpxExtensions/v3 http://www.garmin.com/xmlschemas/GpxExtensionsv3.xsd http://www.garmin.com/xmlschemas/TrackPointExtension/v1 http://www.garmin.com/xmlschemas/TrackPointExtensionv1.xsd" xmlns="http://www.topografix.com/GPX/1/1" xmlns:gpxtpx="http://www.garmin.com/xmlschemas/TrackPointExtension/v1" xmlns:gpxx="http://www.garmin.com/xmlschemas/GpxExtensions/v3" xmlns:xsi="http://www.w3.org/2001/XMLSchema-instance">
 <metadata>
 <author>
 <name>Jan-Philippe Schilt</name>
 <email id="jp.schilt" domain="gmail.com"/>
 </author>
 <link href="http://www.endomondo.com">
 <text>Endomondo</text>
 </link>
 <time>2014-08-14T21:32:24Z</time>
 </metadata>
 <trk>
 <src>http://www.endomondo.com/</src>
 <link href="https://www.endomondo.com/workouts/374281279/1055794">
 <text>endomondo</text>
 </link>
 <type>CYCLING_TRANSPORTATION</type>
 <trkseg>
 <trkpt lat="51.191218" lon="6.793478">
 <time>2014-07-16T20:28:31Z</time>
 </trkpt>
 <trkpt lat="51.191218" lon="6.793478">
 <ele>96.0</ele>
 <time>2014-07-16T20:28:33Z</time>
 </trkpt>
 <trkpt lat="51.191382" lon="6.79352">
 <ele>100.0</ele>
 <time>2014-07-16T20:28:42Z</time>
 </trkpt>
 <trkpt lat="51.191575" lon="6.793392">
 <ele>98.0</ele>
 <time>2014-07-16T20:28:50Z</time>
 </trkpt>
 <trkpt lat="51.191784" lon="6.793342">
 <ele>97.0</ele>
 <time>2014-07-16T20:28:57Z</time>
 </trkpt>
 <trkpt lat="51.192095" lon="6.793293">
 <ele>94.0</ele>
 <time>2014-07-16T20:29:04Z</time>
 </trkpt>
 <trkpt lat="51.192245" lon="6.793558">
 <ele>95.0</ele>
 <time>2014-07-16T20:29:11Z</time>
 </trkpt>
 <trkpt lat="51.192274" lon="6.793764">
 <ele>93.0</ele>
 <time>2014-07-16T20:29:16Z</time>
 </trkpt>
 <trkpt lat="51.192274" lon="6.793764">
 <time>2014-07-16T20:29:22Z</time>
 </trkpt>
 </trkseg>
 <trkseg>
 <trkpt lat="51.192189" lon="6.793828">
 <ele>101.0</ele>
 <time>2014-07-16T20:29:26Z</time>
 </trkpt>
 <trkpt lat="51.192189" lon="6.793828">
 <time>2014-07-16T20:29:26Z</time>
 </trkpt>
 <trkpt lat="51.192074" lon="6.793925">
 <ele>90.0</ele>
 <time>2014-07-16T20:29:31Z</time>
 </trkpt>
 <trkpt lat="51.192106" lon="6.794967">
 <ele>79.0</ele>
 <time>2014-07-16T20:29:39Z</time>
 </trkpt>
 <trkpt lat="51.192185" lon="6.795483">
 <ele>79.0</ele>
 <time>2014-07-16T20:29:44Z</time>
 </trkpt>
 <trkpt lat="51.192285" lon="6.795962">
 <ele>85.0</ele>
 <time>2014-07-16T20:29:50Z</time>
 </trkpt>
 <trkpt lat="51.192379" lon="6.796482">
 <ele>85.0</ele>
 <time>2014-07-16T20:29:56Z</time>
 </trkpt>
 <trkpt lat="51.192444" lon="6.796836">
 <ele>86.0</ele>
 <time>2014-07-16T20:30:00Z</time>
 </trkpt>
 <trkpt lat="51.192544" lon="6.797523">
 <ele>84.0</ele>
 <time>2014-07-16T20:30:07Z</time>
 </trkpt>
 <trkpt lat="51.192615" lon="6.797995">
 <ele>83.0</ele>
 <time>2014-07-16T20:30:12Z</time>
 </trkpt>
 <trkpt lat="51.192789" lon="6.798518">
 <ele>84.0</ele>
 <time>2014-07-16T20:30:18Z</time>
 </trkpt>
 <trkpt lat="51.192933" lon="6.798813">
 <ele>88.0</ele>
 <time>2014-07-16T20:30:22Z</time>
 </trkpt>
 <trkpt lat="51.193225" lon="6.799146">
 <ele>83.0</ele>
 <time>2014-07-16T20:30:27Z</time>
 </trkpt>
 <trkpt lat="51.193641" lon="6.799362">
 <ele>84.0</ele>
 <time>2014-07-16T20:30:34Z</time>
 </trkpt>
 <trkpt lat="51.193915" lon="6.799549">
 <ele>83.0</ele>
 <time>2014-07-16T20:30:40Z</time>
 </trkpt>
 <trkpt lat="51.194316" lon="6.799843">
 <ele>87.0</ele>
 <time>2014-07-16T20:30:45Z</time>
 </trkpt>
 <trkpt lat="51.194746" lon="6.799994">
 <ele>85.0</ele>
 <time>2014-07-16T20:30:50Z</time>
 </trkpt>
 <trkpt lat="51.195202" lon="6.800314">
 <ele>81.0</ele>
 <time>2014-07-16T20:30:56Z</time>
 </trkpt>
 <trkpt lat="51.195498" lon="6.80062">
 <ele>81.0</ele>
 <time>2014-07-16T20:31:02Z</time>
 </trkpt>
 <trkpt lat="51.195276" lon="6.800831">
 <ele>86.0</ele>
 <time>2014-07-16T20:31:08Z</time>
 </trkpt>
 <trkpt lat="51.195224" lon="6.800974">
 <ele>82.0</ele>
 <time>2014-07-16T20:31:13Z</time>
 </trkpt>
 <trkpt lat="51.195254" lon="6.801379">
 <ele>83.0</ele>
 <time>2014-07-16T20:31:22Z</time>
 </trkpt>
 <trkpt lat="51.195174" lon="6.801604">
 <ele>85.0</ele>
 <time>2014-07-16T20:31:29Z</time>
 </trkpt>
 <trkpt lat="51.195078" lon="6.801851">
 <ele>86.0</ele>
 <time>2014-07-16T20:31:35Z</time>
 </trkpt>
 <trkpt lat="51.195005" lon="6.802087">
 <ele>86.0</ele>
 <time>2014-07-16T20:31:39Z</time>
 </trkpt>
 <trkpt lat="51.19488" lon="6.802421">
 <ele>87.0</ele>
 <time>2014-07-16T20:31:44Z</time>
 </trkpt>
 <trkpt lat="51.194724" lon="6.80275">
 <ele>87.0</ele>
 <time>2014-07-16T20:31:49Z</time>
 </trkpt>
 <trkpt lat="51.194533" lon="6.803001">
 <ele>88.0</ele>
 <time>2014-07-16T20:31:54Z</time>
 </trkpt>
 <trkpt lat="51.194368" lon="6.803353">
 <ele>90.0</ele>
 <time>2014-07-16T20:32:00Z</time>
 </trkpt>
 <trkpt lat="51.194275" lon="6.803706">
 <ele>90.0</ele>
 <time>2014-07-16T20:32:07Z</time>
 </trkpt>
 <trkpt lat="51.194177" lon="6.803903">
 <ele>90.0</ele>
 <time>2014-07-16T20:32:13Z</time>
 </trkpt>
 <trkpt lat="51.194093" lon="6.804107">
 <ele>91.0</ele>
 <time>2014-07-16T20:32:19Z</time>
 </trkpt>
 <trkpt lat="51.19431" lon="6.804506">
 <ele>101.0</ele>
 <time>2014-07-16T20:32:29Z</time>
 </trkpt>
 <trkpt lat="51.194501" lon="6.8047">
 <ele>94.0</ele>
 <time>2014-07-16T20:32:34Z</time>
 </trkpt>
 <trkpt lat="51.194725" lon="6.804835">
 <ele>95.0</ele>
 <time>2014-07-16T20:32:40Z</time>
 </trkpt>
 <trkpt lat="51.195006" lon="6.80476">
 <ele>95.0</ele>
 <time>2014-07-16T20:32:47Z</time>
 </trkpt>
 <trkpt lat="51.195109" lon="6.804759">
 <ele>95.0</ele>
 <time>2014-07-16T20:32:52Z</time>
 </trkpt>
 <trkpt lat="51.19545" lon="6.804691">
 <ele>89.0</ele>
 <time>2014-07-16T20:33:02Z</time>
 </trkpt>
 <trkpt lat="51.195708" lon="6.804122">
 <ele>86.0</ele>
 <time>2014-07-16T20:33:08Z</time>
 </trkpt>
 <trkpt lat="51.19582" lon="6.803639">
 <ele>87.0</ele>
 <time>2014-07-16T20:33:13Z</time>
 </trkpt>
 <trkpt lat="51.196051" lon="6.803159">
 <ele>87.0</ele>
 <time>2014-07-16T20:33:19Z</time>
 </trkpt>
 <trkpt lat="51.196387" lon="6.803071">
 <ele>86.0</ele>
 <time>2014-07-16T20:33:26Z</time>
 </trkpt>
 <trkpt lat="51.196696" lon="6.803458">
 <ele>82.0</ele>
 <time>2014-07-16T20:33:33Z</time>
 </trkpt>
 <trkpt lat="51.19698" lon="6.803709">
 <ele>84.0</ele>
 <time>2014-07-16T20:33:38Z</time>
 </trkpt>
 <trkpt lat="51.197256" lon="6.80388">
 <ele>84.0</ele>
 <time>2014-07-16T20:33:43Z</time>
 </trkpt>
 <trkpt lat="51.19764" lon="6.803798">
 <ele>86.0</ele>
 <time>2014-07-16T20:33:49Z</time>
 </trkpt>
 <trkpt lat="51.197879" lon="6.803782">
 <ele>85.0</ele>
 <time>2014-07-16T20:33:54Z</time>
 </trkpt>
 <trkpt lat="51.198126" lon="6.804154">
 <ele>83.0</ele>
 <time>2014-07-16T20:34:00Z</time>
 </trkpt>
 <trkpt lat="51.19818" lon="6.804536">
 <ele>83.0</ele>
 <time>2014-07-16T20:34:04Z</time>
 </trkpt>
 <trkpt lat="51.198352" lon="6.804945">
 <ele>83.0</ele>
 <time>2014-07-16T20:34:10Z</time>
 </trkpt>
 <trkpt lat="51.198578" lon="6.805383">
 <ele>85.0</ele>
 <time>2014-07-16T20:34:17Z</time>
 </trkpt>
 <trkpt lat="51.198714" lon="6.805798">
 <ele>85.0</ele>
 <time>2014-07-16T20:34:22Z</time>
 </trkpt>
 <trkpt lat="51.198794" lon="6.806247">
 <ele>81.0</ele>
 <time>2014-07-16T20:34:27Z</time>
 </trkpt>
 <trkpt lat="51.198804" lon="6.806798">
 <ele>77.0</ele>
 <time>2014-07-16T20:34:33Z</time>
 </trkpt>
 <trkpt lat="51.198801" lon="6.807304">
 <ele>74.0</ele>
 <time>2014-07-16T20:34:38Z</time>
 </trkpt>
 <trkpt lat="51.198739" lon="6.807857">
 <ele>75.0</ele>
 <time>2014-07-16T20:34:44Z</time>
 </trkpt>
 <trkpt lat="51.198716" lon="6.808384">
 <ele>74.0</ele>
 <time>2014-07-16T20:34:50Z</time>
 </trkpt>
 <trkpt lat="51.198433" lon="6.808799">
 <ele>83.0</ele>
 <time>2014-07-16T20:34:57Z</time>
 </trkpt>
 <trkpt lat="51.198205" lon="6.80911">
 <ele>85.0</ele>
 <time>2014-07-16T20:35:02Z</time>
 </trkpt>
 <trkpt lat="51.197965" lon="6.809334">
 <ele>83.0</ele>
 <time>2014-07-16T20:35:07Z</time>
 </trkpt>
 <trkpt lat="51.197822" lon="6.809732">
 <ele>84.0</ele>
 <time>2014-07-16T20:35:12Z</time>
 </trkpt>
 <trkpt lat="51.197702" lon="6.810175">
 <ele>80.0</ele>
 <time>2014-07-16T20:35:17Z</time>
 </trkpt>
 <trkpt lat="51.197417" lon="6.810027">
 <ele>80.0</ele>
 <time>2014-07-16T20:35:23Z</time>
 </trkpt>
 <trkpt lat="51.197204" lon="6.809865">
 <ele>80.0</ele>
 <time>2014-07-16T20:35:28Z</time>
 </trkpt>
 <trkpt lat="51.196917" lon="6.809884">
 <ele>82.0</ele>
 <time>2014-07-16T20:35:33Z</time>
 </trkpt>
 <trkpt lat="51.196649" lon="6.809854">
 <ele>83.0</ele>
 <time>2014-07-16T20:35:38Z</time>
 </trkpt>
 <trkpt lat="51.196467" lon="6.809831">
 <ele>83.0</ele>
 <time>2014-07-16T20:35:41Z</time>
 </trkpt>
 <trkpt lat="51.196091" lon="6.809796">
 <ele>79.0</ele>
 <time>2014-07-16T20:35:47Z</time>
 </trkpt>
 <trkpt lat="51.195823" lon="6.809798">
 <ele>79.0</ele>
 <time>2014-07-16T20:35:51Z</time>
 </trkpt>
 <trkpt lat="51.195446" lon="6.809574">
 <ele>80.0</ele>
 <time>2014-07-16T20:35:57Z</time>
 </trkpt>
 <trkpt lat="51.195266" lon="6.809365">
 <ele>84.0</ele>
 <time>2014-07-16T20:36:03Z</time>
 </trkpt>
 <trkpt lat="51.195133" lon="6.809007">
 <ele>86.0</ele>
 <time>2014-07-16T20:36:08Z</time>
 </trkpt>
 <trkpt lat="51.194913" lon="6.808621">
 <ele>85.0</ele>
 <time>2014-07-16T20:36:15Z</time>
 </trkpt>
 <trkpt lat="51.194848" lon="6.808332">
 <ele>84.0</ele>
 <time>2014-07-16T20:36:20Z</time>
 </trkpt>
 <trkpt lat="51.19481" lon="6.808014">
 <ele>85.0</ele>
 <time>2014-07-16T20:36:25Z</time>
 </trkpt>
 <trkpt lat="51.194795" lon="6.807595">
 <ele>84.0</ele>
 <time>2014-07-16T20:36:31Z</time>
 </trkpt>
 <trkpt lat="51.194904" lon="6.807131">
 <ele>82.0</ele>
 <time>2014-07-16T20:36:38Z</time>
 </trkpt>
 <trkpt lat="51.195162" lon="6.806812">
 <ele>81.0</ele>
 <time>2014-07-16T20:36:45Z</time>
 </trkpt>
 <trkpt lat="51.195326" lon="6.806655">
 <ele>82.0</ele>
 <time>2014-07-16T20:36:51Z</time>
 </trkpt>
 <trkpt lat="51.195625" lon="6.806783">
 <ele>80.0</ele>
 <time>2014-07-16T20:37:05Z</time>
 </trkpt>
 <trkpt lat="51.195625" lon="6.806783">
 <ele>80.0</ele>
 <time>2014-07-16T20:37:13Z</time>
 </trkpt>
 <trkpt lat="51.195625" lon="6.806783">
 <time>2014-07-16T20:37:13Z</time>
 </trkpt>
 </trkseg>
 <trkseg>
 <trkpt lat="51.195458" lon="6.806788">
 <ele>74.0</ele>
 <time>2014-07-16T20:37:42Z</time>
 </trkpt>
 <trkpt lat="51.195458" lon="6.806788">
 <time>2014-07-16T20:37:42Z</time>
 </trkpt>
 <trkpt lat="51.195337" lon="6.80652">
 <ele>80.0</ele>
 <time>2014-07-16T20:37:47Z</time>
 </trkpt>
 <trkpt lat="51.195641" lon="6.806121">
 <ele>84.0</ele>
 <time>2014-07-16T20:37:54Z</time>
 </trkpt>
 <trkpt lat="51.195968" lon="6.805915">
 <ele>84.0</ele>
 <time>2014-07-16T20:37:59Z</time>
 </trkpt>
 <trkpt lat="51.196326" lon="6.805687">
 <ele>86.0</ele>
 <time>2014-07-16T20:38:05Z</time>
 </trkpt>
 <trkpt lat="51.196512" lon="6.805205">
 <ele>86.0</ele>
 <time>2014-07-16T20:38:11Z</time>
 </trkpt>
 <trkpt lat="51.196623" lon="6.804944">
 <ele>84.0</ele>
 <time>2014-07-16T20:38:16Z</time>
 </trkpt>
 <trkpt lat="51.196885" lon="6.804716">
 <ele>84.0</ele>
 <time>2014-07-16T20:38:21Z</time>
 </trkpt>
 <trkpt lat="51.197084" lon="6.804562">
 <ele>85.0</ele>
 <time>2014-07-16T20:38:25Z</time>
 </trkpt>
 <trkpt lat="51.197555" lon="6.804616">
 <ele>80.0</ele>
 <time>2014-07-16T20:38:33Z</time>
 </trkpt>
 <trkpt lat="51.197699" lon="6.804669">
 <ele>83.0</ele>
 <time>2014-07-16T20:38:37Z</time>
 </trkpt>
 <trkpt lat="51.197868" lon="6.804829">
 <ele>83.0</ele>
 <time>2014-07-16T20:38:43Z</time>
 </trkpt>
 <trkpt lat="51.198082" lon="6.804906">
 <ele>84.0</ele>
 <time>2014-07-16T20:38:50Z</time>
 </trkpt>
 <trkpt lat="51.198345" lon="6.80501">
 <ele>84.0</ele>
 <time>2014-07-16T20:38:59Z</time>
 </trkpt>
 <trkpt lat="51.19854" lon="6.80532">
 <ele>80.0</ele>
 <time>2014-07-16T20:39:06Z</time>
 </trkpt>
 <trkpt lat="51.198705" lon="6.805783">
 <ele>80.0</ele>
 <time>2014-07-16T20:39:14Z</time>
 </trkpt>
 <trkpt lat="51.198812" lon="6.806218">
 <ele>85.0</ele>
 <time>2014-07-16T20:39:19Z</time>
 </trkpt>
 <trkpt lat="51.19879" lon="6.806717">
 <ele>82.0</ele>
 <time>2014-07-16T20:39:24Z</time>
 </trkpt>
 <trkpt lat="51.198814" lon="6.80719">
 <ele>82.0</ele>
 <time>2014-07-16T20:39:29Z</time>
 </trkpt>
 <trkpt lat="51.198774" lon="6.807677">
 <ele>79.0</ele>
 <time>2014-07-16T20:39:34Z</time>
 </trkpt>
 <trkpt lat="51.19873" lon="6.808254">
 <ele>80.0</ele>
 <time>2014-07-16T20:39:40Z</time>
 </trkpt>
 <trkpt lat="51.198636" lon="6.808719">
 <ele>83.0</ele>
 <time>2014-07-16T20:39:46Z</time>
 </trkpt>
 <trkpt lat="51.198346" lon="6.808862">
 <ele>85.0</ele>
 <time>2014-07-16T20:39:51Z</time>
 </trkpt>
 <trkpt lat="51.198117" lon="6.809143">
 <ele>83.0</ele>
 <time>2014-07-16T20:39:56Z</time>
 </trkpt>
 <trkpt lat="51.197938" lon="6.809371">
 <ele>84.0</ele>
 <time>2014-07-16T20:40:00Z</time>
 </trkpt>
 <trkpt lat="51.197791" lon="6.809826">
 <ele>86.0</ele>
 <time>2014-07-16T20:40:06Z</time>
 </trkpt>
 <trkpt lat="51.197628" lon="6.810412">
 <ele>80.0</ele>
 <time>2014-07-16T20:40:13Z</time>
 </trkpt>
 <trkpt lat="51.197597" lon="6.81076">
 <ele>79.0</ele>
 <time>2014-07-16T20:40:19Z</time>
 </trkpt>
 <trkpt lat="51.19766" lon="6.811058">
 <ele>79.0</ele>
 <time>2014-07-16T20:40:24Z</time>
 </trkpt>
 <trkpt lat="51.197751" lon="6.811433">
 <ele>85.0</ele>
 <time>2014-07-16T20:40:31Z</time>
 </trkpt>
 <trkpt lat="51.197849" lon="6.811608">
 <ele>88.0</ele>
 <time>2014-07-16T20:40:39Z</time>
 </trkpt>
 <trkpt lat="51.198036" lon="6.811588">
 <ele>88.0</ele>
 <time>2014-07-16T20:40:51Z</time>
 </trkpt>
 <trkpt lat="51.198305" lon="6.811715">
 <ele>88.0</ele>
 <time>2014-07-16T20:41:01Z</time>
 </trkpt>
 <trkpt lat="51.198247" lon="6.811925">
 <ele>89.0</ele>
 <time>2014-07-16T20:41:08Z</time>
 </trkpt>
 <trkpt lat="51.199051" lon="6.812011">
 <ele>90.0</ele>
 <time>2014-07-16T20:41:22Z</time>
 </trkpt>
 <trkpt lat="51.1993" lon="6.812004">
 <ele>92.0</ele>
 <time>2014-07-16T20:41:26Z</time>
 </trkpt>
 <trkpt lat="51.199625" lon="6.812081">
 <ele>101.0</ele>
 <time>2014-07-16T20:41:31Z</time>
 </trkpt>
 <trkpt lat="51.199954" lon="6.812004">
 <ele>101.0</ele>
 <time>2014-07-16T20:41:36Z</time>
 </trkpt>
 <trkpt lat="51.200259" lon="6.811928">
 <ele>98.0</ele>
 <time>2014-07-16T20:41:41Z</time>
 </trkpt>
 <trkpt lat="51.200621" lon="6.811692">
 <ele>98.0</ele>
 <time>2014-07-16T20:41:47Z</time>
 </trkpt>
 <trkpt lat="51.201095" lon="6.811438">
 <ele>96.0</ele>
 <time>2014-07-16T20:41:55Z</time>
 </trkpt>
 <trkpt lat="51.201552" lon="6.81136">
 <ele>103.0</ele>
 <time>2014-07-16T20:42:02Z</time>
 </trkpt>
 <trkpt lat="51.201892" lon="6.811217">
 <ele>105.0</ele>
 <time>2014-07-16T20:42:07Z</time>
 </trkpt>
 <trkpt lat="51.202261" lon="6.811068">
 <ele>104.0</ele>
 <time>2014-07-16T20:42:13Z</time>
 </trkpt>
 <trkpt lat="51.202614" lon="6.810963">
 <ele>102.0</ele>
 <time>2014-07-16T20:42:18Z</time>
 </trkpt>
 <trkpt lat="51.203082" lon="6.810884">
 <ele>107.0</ele>
 <time>2014-07-16T20:42:25Z</time>
 </trkpt>
 <trkpt lat="51.203451" lon="6.810902">
 <ele>104.0</ele>
 <time>2014-07-16T20:42:31Z</time>
 </trkpt>
 <trkpt lat="51.203806" lon="6.810801">
 <ele>108.0</ele>
 <time>2014-07-16T20:42:37Z</time>
 </trkpt>
 <trkpt lat="51.204157" lon="6.810882">
 <ele>102.0</ele>
 <time>2014-07-16T20:42:42Z</time>
 </trkpt>
 <trkpt lat="51.204307" lon="6.810912">
 <ele>101.0</ele>
 <time>2014-07-16T20:42:45Z</time>
 </trkpt>
 <trkpt lat="51.204597" lon="6.810886">
 <ele>100.0</ele>
 <time>2014-07-16T20:42:50Z</time>
 </trkpt>
 <trkpt lat="51.205006" lon="6.810808">
 <ele>105.0</ele>
 <time>2014-07-16T20:42:56Z</time>
 </trkpt>
 <trkpt lat="51.205385" lon="6.810643">
 <ele>106.0</ele>
 <time>2014-07-16T20:43:02Z</time>
 </trkpt>
 <trkpt lat="51.205796" lon="6.810248">
 <ele>106.0</ele>
 <time>2014-07-16T20:43:07Z</time>
 </trkpt>
 <trkpt lat="51.206172" lon="6.810005">
 <ele>102.0</ele>
 <time>2014-07-16T20:43:12Z</time>
 </trkpt>
 <trkpt lat="51.206443" lon="6.809709">
 <ele>105.0</ele>
 <time>2014-07-16T20:43:17Z</time>
 </trkpt>
 <trkpt lat="51.206703" lon="6.809543">
 <ele>104.0</ele>
 <time>2014-07-16T20:43:22Z</time>
 </trkpt>
 <trkpt lat="51.207024" lon="6.809358">
 <ele>102.0</ele>
 <time>2014-07-16T20:43:27Z</time>
 </trkpt>
 <trkpt lat="51.207396" lon="6.809124">
 <ele>100.0</ele>
 <time>2014-07-16T20:43:33Z</time>
 </trkpt>
 <trkpt lat="51.207618" lon="6.80893">
 <ele>102.0</ele>
 <time>2014-07-16T20:43:37Z</time>
 </trkpt>
 <trkpt lat="51.207974" lon="6.808587">
 <ele>102.0</ele>
 <time>2014-07-16T20:43:44Z</time>
 </trkpt>
 <trkpt lat="51.208409" lon="6.808356">
 <ele>105.0</ele>
 <time>2014-07-16T20:43:49Z</time>
 </trkpt>
 <trkpt lat="51.208685" lon="6.808352">
 <ele>105.0</ele>
 <time>2014-07-16T20:43:54Z</time>
 </trkpt>
 <trkpt lat="51.208737" lon="6.808379">
 <ele>106.0</ele>
 <time>2014-07-16T20:43:56Z</time>
 </trkpt>
 <trkpt lat="51.208737" lon="6.808379">
 <time>2014-07-16T20:44:01Z</time>
 </trkpt>
 </trkseg>
 <trkseg>
 <trkpt lat="51.208737" lon="6.808379">
 <time>2014-07-16T20:44:31Z</time>
 </trkpt>
 <trkpt lat="51.208974" lon="6.8083">
 <ele>99.0</ele>
 <time>2014-07-16T20:44:31Z</time>
 </trkpt>
 <trkpt lat="51.209311" lon="6.808309">
 <ele>98.0</ele>
 <time>2014-07-16T20:44:37Z</time>
 </trkpt>
 <trkpt lat="51.209713" lon="6.808442">
 <ele>98.0</ele>
 <time>2014-07-16T20:44:44Z</time>
 </trkpt>
 <trkpt lat="51.210098" lon="6.808446">
 <ele>98.0</ele>
 <time>2014-07-16T20:44:51Z</time>
 </trkpt>
 <trkpt lat="51.21052" lon="6.808541">
 <ele>95.0</ele>
 <time>2014-07-16T20:44:57Z</time>
 </trkpt>
 <trkpt lat="51.21099" lon="6.808306">
 <ele>98.0</ele>
 <time>2014-07-16T20:45:02Z</time>
 </trkpt>
 <trkpt lat="51.21133" lon="6.808022">
 <ele>101.0</ele>
 <time>2014-07-16T20:45:07Z</time>
 </trkpt>
 <trkpt lat="51.211678" lon="6.807667">
 <ele>95.0</ele>
 <time>2014-07-16T20:45:12Z</time>
 </trkpt>
 <trkpt lat="51.212083" lon="6.807364">
 <ele>94.0</ele>
 <time>2014-07-16T20:45:18Z</time>
 </trkpt>
 <trkpt lat="51.212458" lon="6.807199">
 <ele>100.0</ele>
 <time>2014-07-16T20:45:23Z</time>
 </trkpt>
 <trkpt lat="51.212731" lon="6.806973">
 <ele>100.0</ele>
 <time>2014-07-16T20:45:28Z</time>
 </trkpt>
 <trkpt lat="51.212977" lon="6.806757">
 <ele>104.0</ele>
 <time>2014-07-16T20:45:33Z</time>
 </trkpt>
 <trkpt lat="51.212977" lon="6.806757">
 <time>2014-07-16T20:45:38Z</time>
 </trkpt>
 </trkseg>
 <trkseg>
 <trkpt lat="51.212977" lon="6.806757">
 <time>2014-07-16T20:45:42Z</time>
 </trkpt>
 <trkpt lat="51.212933" lon="6.806555">
 <ele>98.0</ele>
 <time>2014-07-16T20:45:42Z</time>
 </trkpt>
 <trkpt lat="51.212933" lon="6.806555">
 <ele>98.0</ele>
 <time>2014-07-16T20:45:48Z</time>
 </trkpt>
 <trkpt lat="51.212933" lon="6.806555">
 <time>2014-07-16T20:45:48Z</time>
 </trkpt>
 </trkseg>
 <trkseg>
 <trkpt lat="51.212933" lon="6.806555">
 <time>2014-07-16T20:47:09Z</time>
 </trkpt>
 <trkpt lat="51.213156" lon="6.806506">
 <ele>96.0</ele>
 <time>2014-07-16T20:47:09Z</time>
 </trkpt>
 <trkpt lat="51.21341" lon="6.806328">
 <ele>97.0</ele>
 <time>2014-07-16T20:47:17Z</time>
 </trkpt>
 <trkpt lat="51.21368" lon="6.806163">
 <ele>95.0</ele>
 <time>2014-07-16T20:47:23Z</time>
 </trkpt>
 <trkpt lat="51.213941" lon="6.805974">
 <ele>95.0</ele>
 <time>2014-07-16T20:47:28Z</time>
 </trkpt>
 <trkpt lat="51.214249" lon="6.805755">
 <ele>99.0</ele>
 <time>2014-07-16T20:47:33Z</time>
 </trkpt>
 <trkpt lat="51.214503" lon="6.805356">
 <ele>100.0</ele>
 <time>2014-07-16T20:47:41Z</time>
 </trkpt>
 <trkpt lat="51.214503" lon="6.805356">
 <ele>100.0</ele>
 <time>2014-07-16T20:47:47Z</time>
 </trkpt>
 <trkpt lat="51.214503" lon="6.805356">
 <time>2014-07-16T20:47:47Z</time>
 </trkpt>
 </trkseg>
 <trkseg>
 <trkpt lat="51.214503" lon="6.805356">
 <time>2014-07-16T20:54:35Z</time>
 </trkpt>
 <trkpt lat="51.214771" lon="6.804956">
 <ele>95.0</ele>
 <time>2014-07-16T21:02:25Z</time>
 </trkpt>
 <trkpt lat="51.214963" lon="6.804824">
 <ele>96.0</ele>
 <time>2014-07-16T21:02:30Z</time>
 </trkpt>
 <trkpt lat="51.215409" lon="6.80443">
 <ele>90.0</ele>
 <time>2014-07-16T21:02:37Z</time>
 </trkpt>
 <trkpt lat="51.215704" lon="6.804266">
 <ele>89.0</ele>
 <time>2014-07-16T21:02:43Z</time>
 </trkpt>
 <trkpt lat="51.215922" lon="6.804108">
 <ele>87.0</ele>
 <time>2014-07-16T21:02:48Z</time>
 </trkpt>
 <trkpt lat="51.216053" lon="6.803903">
 <ele>96.0</ele>
 <time>2014-07-16T21:02:56Z</time>
 </trkpt>
 <trkpt lat="51.216275" lon="6.80362">
 <ele>100.0</ele>
 <time>2014-07-16T21:03:12Z</time>
 </trkpt>
 <trkpt lat="51.216495" lon="6.803469">
 <ele>107.0</ele>
 <time>2014-07-16T21:03:38Z</time>
 </trkpt>
 <trkpt lat="51.216854" lon="6.803187">
 <ele>106.0</ele>
 <time>2014-07-16T21:03:45Z</time>
 </trkpt>
 <trkpt lat="51.217298" lon="6.802825">
 <ele>97.0</ele>
 <time>2014-07-16T21:03:52Z</time>
 </trkpt>
 <trkpt lat="51.217698" lon="6.802334">
 <ele>97.0</ele>
 <time>2014-07-16T21:03:59Z</time>
 </trkpt>
 <trkpt lat="51.217907" lon="6.802012">
 <ele>103.0</ele>
 <time>2014-07-16T21:04:04Z</time>
 </trkpt>
 <trkpt lat="51.218128" lon="6.801798">
 <ele>97.0</ele>
 <time>2014-07-16T21:04:08Z</time>
 </trkpt>
 <trkpt lat="51.218404" lon="6.80153">
 <ele>101.0</ele>
 <time>2014-07-16T21:04:13Z</time>
 </trkpt>
 <trkpt lat="51.218694" lon="6.801207">
 <ele>103.0</ele>
 <time>2014-07-16T21:04:18Z</time>
 </trkpt>
 <trkpt lat="51.218985" lon="6.800924">
 <ele>107.0</ele>
 <time>2014-07-16T21:04:23Z</time>
 </trkpt>
 <trkpt lat="51.219424" lon="6.800552">
 <ele>105.0</ele>
 <time>2014-07-16T21:04:30Z</time>
 </trkpt>
 <trkpt lat="51.219711" lon="6.800254">
 <ele>103.0</ele>
 <time>2014-07-16T21:04:35Z</time>
 </trkpt>
 <trkpt lat="51.220097" lon="6.799976">
 <ele>97.0</ele>
 <time>2014-07-16T21:04:41Z</time>
 </trkpt>
 <trkpt lat="51.220478" lon="6.799661">
 <ele>95.0</ele>
 <time>2014-07-16T21:04:47Z</time>
 </trkpt>
 <trkpt lat="51.220652" lon="6.799495">
 <ele>94.0</ele>
 <time>2014-07-16T21:04:50Z</time>
 </trkpt>
 <trkpt lat="51.22097" lon="6.799065">
 <ele>94.0</ele>
 <time>2014-07-16T21:04:56Z</time>
 </trkpt>
 <trkpt lat="51.221635" lon="6.798386">
 <ele>98.0</ele>
 <time>2014-07-16T21:05:04Z</time>
 </trkpt>
 <trkpt lat="51.221993" lon="6.797981">
 <ele>95.0</ele>
 <time>2014-07-16T21:05:09Z</time>
 </trkpt>
 <trkpt lat="51.222342" lon="6.79771">
 <ele>98.0</ele>
 <time>2014-07-16T21:05:13Z</time>
 </trkpt>
 <trkpt lat="51.223736" lon="6.796745">
 <ele>100.0</ele>
 <time>2014-07-16T21:05:31Z</time>
 </trkpt>
 <trkpt lat="51.223875" lon="6.796585">
 <ele>101.0</ele>
 <time>2014-07-16T21:05:37Z</time>
 </trkpt>
 <trkpt lat="51.224126" lon="6.796307">
 <ele>97.0</ele>
 <time>2014-07-16T21:05:44Z</time>
 </trkpt>
 <trkpt lat="51.224332" lon="6.796065">
 <ele>97.0</ele>
 <time>2014-07-16T21:05:49Z</time>
 </trkpt>
 <trkpt lat="51.224673" lon="6.795769">
 <ele>102.0</ele>
 <time>2014-07-16T21:05:56Z</time>
 </trkpt>
 <trkpt lat="51.225016" lon="6.795534">
 <ele>100.0</ele>
 <time>2014-07-16T21:06:01Z</time>
 </trkpt>
 <trkpt lat="51.225397" lon="6.795252">
 <ele>101.0</ele>
 <time>2014-07-16T21:06:07Z</time>
 </trkpt>
 <trkpt lat="51.225539" lon="6.795078">
 <ele>101.0</ele>
 <time>2014-07-16T21:06:10Z</time>
 </trkpt>
 <trkpt lat="51.225798" lon="6.794794">
 <ele>100.0</ele>
 <time>2014-07-16T21:06:15Z</time>
 </trkpt>
 <trkpt lat="51.226144" lon="6.794605">
 <ele>96.0</ele>
 <time>2014-07-16T21:06:21Z</time>
 </trkpt>
 <trkpt lat="51.226447" lon="6.794261">
 <ele>96.0</ele>
 <time>2014-07-16T21:06:27Z</time>
 </trkpt>
 <trkpt lat="51.226731" lon="6.793956">
 <ele>98.0</ele>
 <time>2014-07-16T21:06:32Z</time>
 </trkpt>
 <trkpt lat="51.226924" lon="6.793693">
 <ele>98.0</ele>
 <time>2014-07-16T21:06:36Z</time>
 </trkpt>
 <trkpt lat="51.227176" lon="6.793411">
 <ele>94.0</ele>
 <time>2014-07-16T21:06:41Z</time>
 </trkpt>
 <trkpt lat="51.227496" lon="6.793158">
 <ele>93.0</ele>
 <time>2014-07-16T21:06:47Z</time>
 </trkpt>
 <trkpt lat="51.227696" lon="6.793047">
 <ele>91.0</ele>
 <time>2014-07-16T21:06:50Z</time>
 </trkpt>
 <trkpt lat="51.227849" lon="6.792865">
 <ele>92.0</ele>
 <time>2014-07-16T21:06:53Z</time>
 </trkpt>
 <trkpt lat="51.228101" lon="6.792484">
 <ele>87.0</ele>
 <time>2014-07-16T21:06:59Z</time>
 </trkpt>
 <trkpt lat="51.228414" lon="6.792103">
 <ele>89.0</ele>
 <time>2014-07-16T21:07:06Z</time>
 </trkpt>
 <trkpt lat="51.228606" lon="6.792427">
 <ele>92.0</ele>
 <time>2014-07-16T21:07:12Z</time>
 </trkpt>
 <trkpt lat="51.228765" lon="6.792876">
 <ele>95.0</ele>
 <time>2014-07-16T21:07:17Z</time>
 </trkpt>
 <trkpt lat="51.22888" lon="6.793462">
 <ele>96.0</ele>
 <time>2014-07-16T21:07:22Z</time>
 </trkpt>
 <trkpt lat="51.229017" lon="6.793977">
 <ele>99.0</ele>
 <time>2014-07-16T21:07:27Z</time>
 </trkpt>
 <trkpt lat="51.229199" lon="6.794623">
 <ele>107.0</ele>
 <time>2014-07-16T21:07:33Z</time>
 </trkpt>
 <trkpt lat="51.229355" lon="6.795176">
 <ele>105.0</ele>
 <time>2014-07-16T21:07:39Z</time>
 </trkpt>
 <trkpt lat="51.229372" lon="6.795494">
 <ele>108.0</ele>
 <time>2014-07-16T21:07:43Z</time>
 </trkpt>
 <trkpt lat="51.229415" lon="6.795866">
 <ele>112.0</ele>
 <time>2014-07-16T21:07:48Z</time>
 </trkpt>
 <trkpt lat="51.2294" lon="6.796119">
 <ele>107.0</ele>
 <time>2014-07-16T21:07:55Z</time>
 </trkpt>
 <trkpt lat="51.229487" lon="6.796589">
 <ele>101.0</ele>
 <time>2014-07-16T21:08:08Z</time>
 </trkpt>
 <trkpt lat="51.229588" lon="6.797116">
 <ele>108.0</ele>
 <time>2014-07-16T21:08:15Z</time>
 </trkpt>
 <trkpt lat="51.229658" lon="6.797671">
 <ele>103.0</ele>
 <time>2014-07-16T21:08:21Z</time>
 </trkpt>
 <trkpt lat="51.229779" lon="6.798273">
 <ele>97.0</ele>
 <time>2014-07-16T21:08:28Z</time>
 </trkpt>
 <trkpt lat="51.22947" lon="6.798367">
 <ele>98.0</ele>
 <time>2014-07-16T21:08:34Z</time>
 </trkpt>
 <trkpt lat="51.22924" lon="6.798488">
 <ele>96.0</ele>
 <time>2014-07-16T21:08:40Z</time>
 </trkpt>
 <trkpt lat="51.22924" lon="6.798488">
 <ele>96.0</ele>
 <time>2014-07-16T21:08:45Z</time>
 </trkpt>
 <trkpt lat="51.22924" lon="6.798488">
 <time>2014-07-16T21:08:45Z</time>
 </trkpt>
 </trkseg>
 <trkseg>
 <trkpt lat="51.22924" lon="6.798488">
 <time>2014-07-16T21:08:53Z</time>
 </trkpt>
 <trkpt lat="51.22924" lon="6.798488">
 <time>2014-07-16T21:10:00Z</time>
 </trkpt>
 </trkseg>
 <trkseg>
 <trkpt lat="51.22924" lon="6.798488">
 <time>2014-07-16T21:10:01Z</time>
 </trkpt>
 </trkseg>
 </trk>
</gpx>